sensor_id;sensor_type;location;lat;lon;timestamp;P1;durP1;ratioP1;P2;durP2;ratioP2
60306;SDS011;46155;52.364;6.580;2023-07-02T03:02:40;16.27;;;11.80;;
60306;SDS011;46155;52.364;6.580;2023-07-02T03:05:05;19.57;;;12.47;;
60306;SDS011;46155;52.364;6.580;2023-07-02T03:07:31;22.27;;;12.60;;
60306;SDS011;46155;52.364;6.580;2023-07-02T03:09:57;15.90;;;12.30;;
60306;SDS011;46155;52.364;6.580;2023-07-02T03:12:23;20.70;;;12.47;;
60306;SDS011;46155;52.364;6.580;2023-07-02T03:14:50;19.90;;;11.87;;
60306;SDS011;46155;52.364;6.580;2023-07-02T03:17:19;16.00;;;11.93;;
60306;SDS011;46155;52.364;6.580;2023-07-02T03:19:45;19.77;;;12.27;;
60306;SDS011;46155;52.364;6.580;2023-07-02T03:22:10;21.20;;;12.90;;
60306;SDS011;46155;52.364;6.580;2023-07-02T03:24:35;19.33;;;11.33;;
60306;SDS011;46155;52.364;6.580;2023-07-02T03:27:01;19.50;;;11.67;;
60306;SDS011;46155;52.364;6.580;2023-07-02T03:29:26;23.13;;;11.43;;
60306;SDS011;46155;52.364;6.580;2023-07-02T03:31:52;22.67;;;12.07;;
60306;SDS011;46155;52.364;6.580;2023-07-02T03:34:17;25.70;;;12.23;;
60306;SDS011;46155;52.364;6.580;2023-07-02T03:36:42;24.17;;;10.90;;
60306;SDS011;46155;52.364;6.580;2023-07-02T03:39:09;15.97;;;11.00;;
60306;SDS011;46155;52.364;6.580;2023-07-02T03:41:35;22.53;;;11.20;;
60306;SDS011;46155;52.364;6.580;2023-07-02T03:44:00;17.40;;;10.20;;
60306;SDS011;46155;52.364;6.580;2023-07-02T03:46:25;28.30;;;11.20;;
60306;SDS011;46155;52.364;6.580;2023-07-02T03:48:51;25.83;;;10.83;;
60306;SDS011;46155;52.364;6.580;2023-07-02T03:51:16;26.07;;;11.27;;
60306;SDS011;46155;52.364;6.580;2023-07-02T03:53:41;22.57;;;11.60;;
60306;SDS011;46155;52.364;6.580;2023-07-02T03:56:07;20.67;;;10.17;;
60306;SDS011;46155;52.364;6.580;2023-07-02T03:58:32;19.77;;;10.87;;
60306;SDS011;46155;52.364;6.580;2023-07-02T04:00:58;17.87;;;10.97;;
60306;SDS011;46155;52.364;6.580;2023-07-02T04:03:24;21.40;;;11.20;;
60306;SDS011;46155;52.364;6.580;2023-07-02T04:05:49;16.93;;;10.73;;
60306;SDS011;46155;52.364;6.580;2023-07-02T04:08:15;18.80;;;11.83;;
60306;SDS011;46155;52.364;6.580;2023-07-02T04:10:41;22.70;;;10.43;;
60306;SDS011;46155;52.364;6.580;2023-07-02T04:13:06;16.60;;;10.53;;
60306;SDS011;46155;52.364;6.580;2023-07-02T04:15:32;19.13;;;9.93;;
60306;SDS011;46155;52.364;6.580;2023-07-02T04:17:58;25.73;;;11.13;;
60306;SDS011;46155;52.364;6.580;2023-07-02T04:20:23;17.47;;;10.93;;
60306;SDS011;46155;52.364;6.580;2023-07-02T04:22:50;25.17;;;11.17;;
60306;SDS011;46155;52.364;6.580;2023-07-02T04:25:15;17.27;;;11.07;;
60306;SDS011;46155;52.364;6.580;2023-07-02T04:27:41;23.33;;;12.43;;
60306;SDS011;46155;52.364;6.580;2023-07-02T04:30:07;16.10;;;10.90;;
60306;SDS011;46155;52.364;6.580;2023-07-02T04:32:34;24.97;;;12.50;;
60306;SDS011;46155;52.364;6.580;2023-07-02T04:35:00;15.13;;;10.50;;
60306;SDS011;46155;52.364;6.580;2023-07-02T04:37:26;27.77;;;11.83;;
60306;SDS011;46155;52.364;6.580;2023-07-02T04:39:53;23.80;;;12.27;;
60306;SDS011;46155;52.364;6.580;2023-07-02T04:42:19;21.17;;;11.10;;
60306;SDS011;46155;52.364;6.580;2023-07-02T04:44:44;21.63;;;10.90;;
60306;SDS011;46155;52.364;6.580;2023-07-02T04:47:09;23.80;;;12.57;;
60306;SDS011;46155;52.364;6.580;2023-07-02T04:49:35;21.90;;;11.77;;
60306;SDS011;46155;52.364;6.580;2023-07-02T04:52:00;18.33;;;11.57;;
60306;SDS011;46155;52.364;6.580;2023-07-02T04:54:25;24.23;;;12.17;;
60306;SDS011;46155;52.364;6.580;2023-07-02T04:56:51;23.30;;;12.63;;
60306;SDS011;46155;52.364;6.580;2023-07-02T04:59:16;14.93;;;11.27;;
60306;SDS011;46155;52.364;6.580;2023-07-02T05:01:42;19.17;;;13.00;;
60306;SDS011;46155;52.364;6.580;2023-07-02T05:04:09;20.63;;;11.93;;
60306;SDS011;46155;52.364;6.580;2023-07-02T05:06:36;24.43;;;13.37;;
60306;SDS011;46155;52.364;6.580;2023-07-02T05:09:01;19.50;;;12.33;;
60306;SDS011;46155;52.364;6.580;2023-07-02T05:11:27;25.47;;;12.80;;
60306;SDS011;46155;52.364;6.580;2023-07-02T05:13:52;22.83;;;12.13;;
60306;SDS011;46155;52.364;6.580;2023-07-02T05:16:17;18.93;;;11.90;;
60306;SDS011;46155;52.364;6.580;2023-07-02T05:18:43;30.60;;;11.87;;
60306;SDS011;46155;52.364;6.580;2023-07-02T05:21:08;19.87;;;12.10;;
60306;SDS011;46155;52.364;6.580;2023-07-02T05:23:33;17.57;;;12.00;;
60306;SDS011;46155;52.364;6.580;2023-07-02T05:25:59;21.27;;;12.10;;
60306;SDS011;46155;52.364;6.580;2023-07-02T05:28:24;21.80;;;11.80;;
60306;SDS011;46155;52.364;6.580;2023-07-02T05:30:50;21.23;;;12.40;;
60306;SDS011;46155;52.364;6.580;2023-07-02T05:33:15;24.23;;;11.90;;
60306;SDS011;46155;52.364;6.580;2023-07-02T05:35:41;24.70;;;13.10;;
60306;SDS011;46155;52.364;6.580;2023-07-02T05:38:06;33.20;;;12.10;;
60306;SDS011;46155;52.364;6.580;2023-07-02T05:40:32;25.27;;;12.43;;
60306;SDS011;46155;52.364;6.580;2023-07-02T05:42:57;23.43;;;12.07;;
60306;SDS011;46155;52.364;6.580;2023-07-02T05:45:22;26.90;;;12.50;;
60306;SDS011;46155;52.364;6.580;2023-07-02T05:47:48;20.30;;;12.33;;
60306;SDS011;46155;52.364;6.580;2023-07-02T05:50:14;28.33;;;12.00;;
60306;SDS011;46155;52.364;6.580;2023-07-02T05:52:39;27.90;;;11.47;;
60306;SDS011;46155;52.364;6.580;2023-07-02T05:55:05;21.57;;;11.80;;
60306;SDS011;46155;52.364;6.580;2023-07-02T05:57:35;33.50;;;11.60;;
60306;SDS011;46155;52.364;6.580;2023-07-02T06:00:00;25.47;;;12.00;;
60306;SDS011;46155;52.364;6.580;2023-07-02T06:02:26;18.17;;;11.50;;
60306;SDS011;46155;52.364;6.580;2023-07-02T06:04:51;27.27;;;12.73;;
60306;SDS011;46155;52.364;6.580;2023-07-02T06:07:16;27.33;;;12.13;;
60306;SDS011;46155;52.364;6.580;2023-07-02T06:09:42;20.83;;;12.40;;
60306;SDS011;46155;52.364;6.580;2023-07-02T06:12:07;24.87;;;11.73;;
60306;SDS011;46155;52.364;6.580;2023-07-02T06:14:33;25.47;;;11.03;;
60306;SDS011;46155;52.364;6.580;2023-07-02T06:16:58;37.53;;;12.23;;
60306;SDS011;46155;52.364;6.580;2023-07-02T06:19:24;26.07;;;11.20;;
60306;SDS011;46155;52.364;6.580;2023-07-02T06:21:49;19.37;;;10.97;;
60306;SDS011;46155;52.364;6.580;2023-07-02T06:24:15;23.90;;;11.90;;
60306;SDS011;46155;52.364;6.580;2023-07-02T06:26:40;21.73;;;11.43;;
60306;SDS011;46155;52.364;6.580;2023-07-02T06:29:05;24.80;;;12.43;;
60306;SDS011;46155;52.364;6.580;2023-07-02T06:31:30;24.53;;;11.63;;
60306;SDS011;46155;52.364;6.580;2023-07-02T06:33:56;28.20;;;11.50;;
60306;SDS011;46155;52.364;6.580;2023-07-02T06:36:21;26.60;;;11.20;;
60306;SDS011;46155;52.364;6.580;2023-07-02T06:38:46;26.00;;;11.87;;
60306;SDS011;46155;52.364;6.580;2023-07-02T06:41:12;32.90;;;12.83;;
60306;SDS011;46155;52.364;6.580;2023-07-02T06:43:37;19.57;;;11.37;;
60306;SDS011;46155;52.364;6.580;2023-07-02T06:46:03;22.93;;;11.33;;
60306;SDS011;46155;52.364;6.580;2023-07-02T06:48:28;24.77;;;11.60;;
60306;SDS011;46155;52.364;6.580;2023-07-02T06:50:55;20.13;;;10.37;;
60306;SDS011;46155;52.364;6.580;2023-07-02T06:53:20;25.73;;;10.67;;
60306;SDS011;46155;52.364;6.580;2023-07-02T06:55:46;19.10;;;11.33;;
60306;SDS011;46155;52.364;6.580;2023-07-02T06:58:11;24.80;;;12.13;;
60306;SDS011;46155;52.364;6.580;2023-07-02T07:00:36;30.90;;;11.90;;
60306;SDS011;46155;52.364;6.580;2023-07-02T07:03:02;20.87;;;10.53;;
60306;SDS011;46155;52.364;6.580;2023-07-02T07:05:31;26.20;;;10.87;;
60306;SDS011;46155;52.364;6.580;2023-07-02T07:07:59;20.27;;;11.73;;
60306;SDS011;46155;52.364;6.580;2023-07-02T07:10:28;28.60;;;11.73;;
60306;SDS011;46155;52.364;6.580;2023-07-02T07:12:58;23.53;;;11.60;;
60306;SDS011;46155;52.364;6.580;2023-07-02T07:15:24;18.80;;;10.70;;
60306;SDS011;46155;52.364;6.580;2023-07-02T07:17:49;24.73;;;11.87;;
60306;SDS011;46155;52.364;6.580;2023-07-02T07:20:15;25.70;;;11.43;;
60306;SDS011;46155;52.364;6.580;2023-07-02T07:22:40;18.57;;;10.27;;
60306;SDS011;46155;52.364;6.580;2023-07-02T07:25:05;24.20;;;11.53;;
60306;SDS011;46155;52.364;6.580;2023-07-02T07:27:31;21.27;;;10.63;;
60306;SDS011;46155;52.364;6.580;2023-07-02T07:29:56;21.37;;;10.83;;
60306;SDS011;46155;52.364;6.580;2023-07-02T07:32:21;20.17;;;11.47;;
60306;SDS011;46155;52.364;6.580;2023-07-02T07:34:47;23.83;;;10.87;;
60306;SDS011;46155;52.364;6.580;2023-07-02T07:37:12;20.60;;;10.40;;
60306;SDS011;46155;52.364;6.580;2023-07-02T07:39:37;17.70;;;10.00;;
60306;SDS011;46155;52.364;6.580;2023-07-02T07:42:03;18.80;;;10.87;;
60306;SDS011;46155;52.364;6.580;2023-07-02T07:44:28;16.97;;;10.57;;
60306;SDS011;46155;52.364;6.580;2023-07-02T07:46:54;19.10;;;10.20;;
60306;SDS011;46155;52.364;6.580;2023-07-02T07:49:20;16.43;;;8.83;;
60306;SDS011;46155;52.364;6.580;2023-07-02T07:51:46;18.60;;;10.00;;
60306;SDS011;46155;52.364;6.580;2023-07-02T07:54:12;23.10;;;9.93;;
60306;SDS011;46155;52.364;6.580;2023-07-02T07:56:37;19.77;;;10.03;;
60306;SDS011;46155;52.364;6.580;2023-07-02T07:59:02;21.70;;;9.67;;
60306;SDS011;46155;52.364;6.580;2023-07-02T08:01:28;18.67;;;9.33;;
60306;SDS011;46155;52.364;6.580;2023-07-02T08:03:53;19.17;;;9.83;;
60306;SDS011;46155;52.364;6.580;2023-07-02T08:06:18;20.47;;;9.27;;
60306;SDS011;46155;52.364;6.580;2023-07-02T08:08:44;20.93;;;9.53;;
60306;SDS011;46155;52.364;6.580;2023-07-02T08:11:09;22.43;;;10.13;;
60306;SDS011;46155;52.364;6.580;2023-07-02T08:13:34;24.30;;;9.80;;
60306;SDS011;46155;52.364;6.580;2023-07-02T08:16:00;25.50;;;9.53;;
60306;SDS011;46155;52.364;6.580;2023-07-02T08:18:25;33.33;;;10.37;;
60306;SDS011;46155;52.364;6.580;2023-07-02T08:20:50;18.73;;;10.03;;
60306;SDS011;46155;52.364;6.580;2023-07-02T08:23:16;19.30;;;9.47;;
60306;SDS011;46155;52.364;6.580;2023-07-02T08:25:41;24.63;;;10.13;;
60306;SDS011;46155;52.364;6.580;2023-07-02T08:28:06;16.03;;;9.07;;
60306;SDS011;46155;52.364;6.580;2023-07-02T08:30:32;18.63;;;8.53;;
60306;SDS011;46155;52.364;6.580;2023-07-02T08:32:57;15.40;;;9.37;;
60306;SDS011;46155;52.364;6.580;2023-07-02T08:35:22;18.90;;;9.17;;
60306;SDS011;46155;52.364;6.580;2023-07-02T08:37:48;18.33;;;9.03;;
60306;SDS011;46155;52.364;6.580;2023-07-02T08:40:17;18.27;;;9.87;;
60306;SDS011;46155;52.364;6.580;2023-07-02T08:42:44;20.03;;;8.87;;
60306;SDS011;46155;52.364;6.580;2023-07-02T08:45:12;16.47;;;8.17;;
60306;SDS011;46155;52.364;6.580;2023-07-02T08:47:40;13.20;;;8.20;;
60306;SDS011;46155;52.364;6.580;2023-07-02T08:50:05;16.40;;;8.33;;
60306;SDS011;46155;52.364;6.580;2023-07-02T08:52:31;12.27;;;8.93;;
60306;SDS011;46155;52.364;6.580;2023-07-02T08:54:57;14.40;;;8.50;;
60306;SDS011;46155;52.364;6.580;2023-07-02T08:57:22;19.63;;;8.80;;
60306;SDS011;46155;52.364;6.580;2023-07-02T08:59:47;19.47;;;9.00;;
60306;SDS011;46155;52.364;6.580;2023-07-02T09:02:14;13.20;;;7.50;;
60306;SDS011;46155;52.364;6.580;2023-07-02T09:04:39;9.50;;;7.27;;
60306;SDS011;46155;52.364;6.580;2023-07-02T09:07:05;12.10;;;8.10;;
60306;SDS011;46155;52.364;6.580;2023-07-02T09:09:32;18.53;;;8.80;;
60306;SDS011;46155;52.364;6.580;2023-07-02T09:11:58;14.30;;;8.27;;
60306;SDS011;46155;52.364;6.580;2023-07-02T09:14:24;13.27;;;8.30;;
60306;SDS011;46155;52.364;6.580;2023-07-02T09:17:00;12.50;;;8.53;;
60306;SDS011;46155;52.364;6.580;2023-07-02T09:19:35;11.20;;;8.83;;
60306;SDS011;46155;52.364;6.580;2023-07-02T09:22:01;15.30;;;8.87;;
60306;SDS011;46155;52.364;6.580;2023-07-02T09:24:28;12.60;;;8.00;;
60306;SDS011;46155;52.364;6.580;2023-07-02T09:26:56;15.17;;;7.87;;
60306;SDS011;46155;52.364;6.580;2023-07-02T09:29:24;13.47;;;8.70;;
60306;SDS011;46155;52.364;6.580;2023-07-02T09:32:03;10.77;;;8.17;;
60306;SDS011;46155;52.364;6.580;2023-07-02T09:36:56;12.73;;;8.30;;
60306;SDS011;46155;52.364;6.580;2023-07-02T09:39:26;14.90;;;8.37;;
60306;SDS011;46155;52.364;6.580;2023-07-02T09:41:56;13.20;;;8.10;;
60306;SDS011;46155;52.364;6.580;2023-07-02T09:44:32;17.50;;;9.30;;
60306;SDS011;46155;52.364;6.580;2023-07-02T09:47:05;9.97;;;7.73;;
60306;SDS011;46155;52.364;6.580;2023-07-02T09:49:33;12.77;;;8.20;;
60306;SDS011;46155;52.364;6.580;2023-07-02T09:52:07;9.53;;;7.53;;
60306;SDS011;46155;52.364;6.580;2023-07-02T09:54:36;8.83;;;7.93;;
60306;SDS011;46155;52.364;6.580;2023-07-02T09:57:02;9.63;;;7.13;;
60306;SDS011;46155;52.364;6.580;2023-07-02T09:59:28;11.37;;;7.93;;
60306;SDS011;46155;52.364;6.580;2023-07-02T10:01:54;13.80;;;7.90;;
60306;SDS011;46155;52.364;6.580;2023-07-02T10:04:20;13.90;;;7.63;;
60306;SDS011;46155;52.364;6.580;2023-07-02T10:06:55;13.07;;;7.00;;
60306;SDS011;46155;52.364;6.580;2023-07-02T10:09:33;11.60;;;7.57;;
60306;SDS011;46155;52.364;6.580;2023-07-02T10:12:00;12.20;;;7.63;;
60306;SDS011;46155;52.364;6.580;2023-07-02T10:14:26;10.33;;;6.93;;
60306;SDS011;46155;52.364;6.580;2023-07-02T10:16:54;9.47;;;7.47;;
60306;SDS011;46155;52.364;6.580;2023-07-02T10:19:20;8.37;;;7.20;;
60306;SDS011;46155;52.364;6.580;2023-07-02T10:21:46;13.17;;;7.73;;
60306;SDS011;46155;52.364;6.580;2023-07-02T10:24:25;7.77;;;6.73;;
60306;SDS011;46155;52.364;6.580;2023-07-02T10:26:54;11.57;;;6.90;;
60306;SDS011;46155;52.364;6.580;2023-07-02T10:29:25;7.80;;;7.10;;
60306;SDS011;46155;52.364;6.580;2023-07-02T10:31:51;10.57;;;7.87;;
60306;SDS011;46155;52.364;6.580;2023-07-02T10:34:30;11.53;;;7.97;;
60306;SDS011;46155;52.364;6.580;2023-07-02T10:36:57;12.03;;;8.60;;
60306;SDS011;46155;52.364;6.580;2023-07-02T10:39:23;10.97;;;8.60;;
60306;SDS011;46155;52.364;6.580;2023-07-02T10:41:49;15.10;;;8.23;;
60306;SDS011;46155;52.364;6.580;2023-07-02T10:44:14;14.40;;;8.20;;
60306;SDS011;46155;52.364;6.580;2023-07-02T10:46:47;9.40;;;7.77;;
60306;SDS011;46155;52.364;6.580;2023-07-02T10:49:16;10.77;;;8.17;;
60306;SDS011;46155;52.364;6.580;2023-07-02T10:51:43;9.70;;;7.77;;
60306;SDS011;46155;52.364;6.580;2023-07-02T10:54:08;16.10;;;9.03;;
60306;SDS011;46155;52.364;6.580;2023-07-02T10:56:34;14.40;;;8.23;;
60306;SDS011;46155;52.364;6.580;2023-07-02T10:58:59;13.37;;;7.97;;
60306;SDS011;46155;52.364;6.580;2023-07-02T11:01:26;15.73;;;9.27;;
60306;SDS011;46155;52.364;6.580;2023-07-02T11:04:10;13.23;;;8.03;;
60306;SDS011;46155;52.364;6.580;2023-07-02T11:06:36;8.73;;;7.50;;
60306;SDS011;46155;52.364;6.580;2023-07-02T11:09:01;16.07;;;8.10;;
60306;SDS011;46155;52.364;6.580;2023-07-02T11:11:28;11.83;;;7.57;;
60306;SDS011;46155;52.364;6.580;2023-07-02T11:13:54;11.37;;;8.13;;
60306;SDS011;46155;52.364;6.580;2023-07-02T11:18:45;23.23;;;10.10;;
60306;SDS011;46155;52.364;6.580;2023-07-02T11:21:10;16.17;;;7.77;;
60306;SDS011;46155;52.364;6.580;2023-07-02T11:23:36;15.60;;;7.30;;
60306;SDS011;46155;52.364;6.580;2023-07-02T11:26:01;9.40;;;7.37;;
60306;SDS011;46155;52.364;6.580;2023-07-02T11:28:28;12.47;;;8.20;;
60306;SDS011;46155;52.364;6.580;2023-07-02T11:30:55;8.93;;;7.73;;
60306;SDS011;46155;52.364;6.580;2023-07-02T11:33:32;12.60;;;7.27;;
60306;SDS011;46155;52.364;6.580;2023-07-02T11:35:57;8.03;;;7.23;;
60306;SDS011;46155;52.364;6.580;2023-07-02T11:38:22;12.73;;;7.37;;
60306;SDS011;46155;52.364;6.580;2023-07-02T11:40:48;9.23;;;7.03;;
60306;SDS011;46155;52.364;6.580;2023-07-02T11:43:13;12.00;;;7.67;;
60306;SDS011;46155;52.364;6.580;2023-07-02T11:45:38;12.20;;;7.00;;
60306;SDS011;46155;52.364;6.580;2023-07-02T11:48:05;7.80;;;6.83;;
60306;SDS011;46155;52.364;6.580;2023-07-02T11:50:30;8.23;;;7.50;;
60306;SDS011;46155;52.364;6.580;2023-07-02T11:52:55;9.53;;;7.40;;
60306;SDS011;46155;52.364;6.580;2023-07-02T11:55:21;11.10;;;7.47;;
60306;SDS011;46155;52.364;6.580;2023-07-02T11:57:46;9.80;;;6.80;;
60306;SDS011;46155;52.364;6.580;2023-07-02T12:00:14;7.07;;;6.37;;
60306;SDS011;46155;52.364;6.580;2023-07-02T12:02:39;6.97;;;6.33;;
60306;SDS011;46155;52.364;6.580;2023-07-02T12:05:05;12.50;;;6.77;;
60306;SDS011;46155;52.364;6.580;2023-07-02T12:07:30;7.33;;;6.20;;
60306;SDS011;46155;52.364;6.580;2023-07-02T12:09:56;7.00;;;6.00;;
60306;SDS011;46155;52.364;6.580;2023-07-02T12:12:21;10.40;;;6.50;;
60306;SDS011;46155;52.364;6.580;2023-07-02T12:14:46;10.80;;;7.77;;
60306;SDS011;46155;52.364;6.580;2023-07-02T12:17:17;7.67;;;6.43;;
60306;SDS011;46155;52.364;6.580;2023-07-02T12:19:42;9.07;;;7.13;;
60306;SDS011;46155;52.364;6.580;2023-07-02T12:22:08;12.47;;;7.53;;
60306;SDS011;46155;52.364;6.580;2023-07-02T12:24:33;9.00;;;7.27;;
60306;SDS011;46155;52.364;6.580;2023-07-02T12:26:59;10.30;;;7.53;;
60306;SDS011;46155;52.364;6.580;2023-07-02T12:29:24;16.23;;;7.10;;
60306;SDS011;46155;52.364;6.580;2023-07-02T12:31:49;8.73;;;6.67;;
60306;SDS011;46155;52.364;6.580;2023-07-02T12:34:15;8.00;;;6.57;;
60306;SDS011;46155;52.364;6.580;2023-07-02T12:36:40;9.37;;;6.70;;
60306;SDS011;46155;52.364;6.580;2023-07-02T12:39:06;10.68;;;7.13;;
60306;SDS011;46155;52.364;6.580;2023-07-02T12:41:31;8.03;;;6.33;;
60306;SDS011;46155;52.364;6.580;2023-07-02T12:43:58;7.60;;;6.90;;
60306;SDS011;46155;52.364;6.580;2023-07-02T12:46:24;7.80;;;6.77;;
60306;SDS011;46155;52.364;6.580;2023-07-02T12:48:49;8.83;;;7.20;;
60306;SDS011;46155;52.364;6.580;2023-07-02T12:51:14;9.40;;;6.90;;
60306;SDS011;46155;52.364;6.580;2023-07-02T12:53:40;9.70;;;7.63;;
60306;SDS011;46155;52.364;6.580;2023-07-02T12:56:05;9.77;;;6.73;;
60306;SDS011;46155;52.364;6.580;2023-07-02T12:58:31;7.53;;;6.83;;
60306;SDS011;46155;52.364;6.580;2023-07-02T13:00:59;10.47;;;6.80;;
60306;SDS011;46155;52.364;6.580;2023-07-02T13:03:24;12.17;;;7.03;;
60306;SDS011;46155;52.364;6.580;2023-07-02T13:05:50;7.43;;;6.73;;
60306;SDS011;46155;52.364;6.580;2023-07-02T13:08:16;8.43;;;6.63;;
60306;SDS011;46155;52.364;6.580;2023-07-02T13:10:41;11.33;;;7.43;;
60306;SDS011;46155;52.364;6.580;2023-07-02T13:13:07;11.53;;;6.20;;
60306;SDS011;46155;52.364;6.580;2023-07-02T13:15:33;6.63;;;6.03;;
60306;SDS011;46155;52.364;6.580;2023-07-02T13:17:59;8.57;;;6.00;;
60306;SDS011;46155;52.364;6.580;2023-07-02T13:20:25;11.47;;;7.20;;
60306;SDS011;46155;52.364;6.580;2023-07-02T13:22:50;13.10;;;6.10;;
60306;SDS011;46155;52.364;6.580;2023-07-02T13:25:15;11.93;;;7.63;;
60306;SDS011;46155;52.364;6.580;2023-07-02T13:27:41;11.10;;;6.80;;
60306;SDS011;46155;52.364;6.580;2023-07-02T13:30:06;9.80;;;6.87;;
60306;SDS011;46155;52.364;6.580;2023-07-02T13:32:32;11.23;;;6.47;;
60306;SDS011;46155;52.364;6.580;2023-07-02T13:34:57;12.80;;;7.37;;
60306;SDS011;46155;52.364;6.580;2023-07-02T13:37:23;12.63;;;7.43;;
60306;SDS011;46155;52.364;6.580;2023-07-02T13:39:49;11.43;;;6.73;;
60306;SDS011;46155;52.364;6.580;2023-07-02T13:42:15;9.00;;;7.00;;
60306;SDS011;46155;52.364;6.580;2023-07-02T13:44:40;9.77;;;6.80;;
60306;SDS011;46155;52.364;6.580;2023-07-02T13:47:06;12.10;;;7.27;;
60306;SDS011;46155;52.364;6.580;2023-07-02T13:49:32;8.77;;;6.63;;
60306;SDS011;46155;52.364;6.580;2023-07-02T13:51:58;9.50;;;6.60;;
60306;SDS011;46155;52.364;6.580;2023-07-02T13:54:24;13.23;;;7.40;;
60306;SDS011;46155;52.364;6.580;2023-07-02T13:56:49;7.77;;;6.00;;
60306;SDS011;46155;52.364;6.580;2023-07-02T13:59:15;12.67;;;6.50;;
60306;SDS011;46155;52.364;6.580;2023-07-02T14:01:42;7.37;;;6.63;;
60306;SDS011;46155;52.364;6.580;2023-07-02T14:04:08;12.07;;;7.23;;
60306;SDS011;46155;52.364;6.580;2023-07-02T14:06:34;9.70;;;6.70;;
60306;SDS011;46155;52.364;6.580;2023-07-02T14:09:00;11.10;;;7.00;;
60306;SDS011;46155;52.364;6.580;2023-07-02T14:11:25;13.60;;;7.20;;
60306;SDS011;46155;52.364;6.580;2023-07-02T14:13:52;12.00;;;7.10;;
60306;SDS011;46155;52.364;6.580;2023-07-02T14:16:18;13.67;;;7.23;;
60306;SDS011;46155;52.364;6.580;2023-07-02T14:18:43;14.70;;;7.63;;
60306;SDS011;46155;52.364;6.580;2023-07-02T14:21:08;14.63;;;7.40;;
60306;SDS011;46155;52.364;6.580;2023-07-02T14:23:34;8.93;;;7.00;;
60306;SDS011;46155;52.364;6.580;2023-07-02T14:25:59;9.73;;;7.27;;
60306;SDS011;46155;52.364;6.580;2023-07-02T14:28:25;11.80;;;7.00;;
60306;SDS011;46155;52.364;6.580;2023-07-02T14:30:57;11.23;;;6.87;;
60306;SDS011;46155;52.364;6.580;2023-07-02T14:33:24;9.23;;;7.43;;
60306;SDS011;46155;52.364;6.580;2023-07-02T14:35:50;9.70;;;6.90;;
60306;SDS011;46155;52.364;6.580;2023-07-02T14:38:15;8.40;;;6.93;;
60306;SDS011;46155;52.364;6.580;2023-07-02T14:40:41;11.90;;;7.00;;
60306;SDS011;46155;52.364;6.580;2023-07-02T14:43:06;9.97;;;6.80;;
60306;SDS011;46155;52.364;6.580;2023-07-02T14:45:32;13.67;;;6.90;;
60306;SDS011;46155;52.364;6.580;2023-07-02T14:47:57;10.00;;;6.87;;
60306;SDS011;46155;52.364;6.580;2023-07-02T14:50:25;8.50;;;6.70;;
60306;SDS011;46155;52.364;6.580;2023-07-02T14:52:53;8.07;;;6.60;;
60306;SDS011;46155;52.364;6.580;2023-07-02T14:55:18;12.97;;;7.10;;
60306;SDS011;46155;52.364;6.580;2023-07-02T14:57:43;11.47;;;6.80;;
60306;SDS011;46155;52.364;6.580;2023-07-02T15:00:09;9.93;;;6.87;;
60306;SDS011;46155;52.364;6.580;2023-07-02T15:02:35;8.20;;;7.07;;
60306;SDS011;46155;52.364;6.580;2023-07-02T15:05:00;9.00;;;6.90;;
60306;SDS011;46155;52.364;6.580;2023-07-02T15:07:25;13.03;;;6.70;;
60306;SDS011;46155;52.364;6.580;2023-07-02T15:09:51;12.30;;;6.60;;
60306;SDS011;46155;52.364;6.580;2023-07-02T15:12:17;9.50;;;7.10;;
60306;SDS011;46155;52.364;6.580;2023-07-02T15:14:42;10.07;;;7.33;;
60306;SDS011;46155;52.364;6.580;2023-07-02T15:17:08;10.53;;;7.70;;
60306;SDS011;46155;52.364;6.580;2023-07-02T15:19:33;9.73;;;7.30;;
60306;SDS011;46155;52.364;6.580;2023-07-02T15:21:59;9.17;;;6.83;;
60306;SDS011;46155;52.364;6.580;2023-07-02T15:24:24;7.80;;;7.00;;
60306;SDS011;46155;52.364;6.580;2023-07-02T15:26:49;8.37;;;6.60;;
60306;SDS011;46155;52.364;6.580;2023-07-02T15:29:15;12.70;;;6.90;;
60306;SDS011;46155;52.364;6.580;2023-07-02T15:31:40;12.73;;;7.83;;
60306;SDS011;46155;52.364;6.580;2023-07-02T15:34:07;7.93;;;7.00;;
60306;SDS011;46155;52.364;6.580;2023-07-02T15:36:32;10.77;;;6.70;;
60306;SDS011;46155;52.364;6.580;2023-07-02T15:39:01;8.57;;;6.80;;
60306;SDS011;46155;52.364;6.580;2023-07-02T15:41:28;9.83;;;6.57;;
60306;SDS011;46155;52.364;6.580;2023-07-02T15:43:53;11.87;;;7.40;;
60306;SDS011;46155;52.364;6.580;2023-07-02T15:46:20;11.73;;;7.57;;
60306;SDS011;46155;52.364;6.580;2023-07-02T15:48:46;8.50;;;6.43;;
60306;SDS011;46155;52.364;6.580;2023-07-02T15:51:11;16.27;;;7.83;;
60306;SDS011;46155;52.364;6.580;2023-07-02T15:53:38;10.67;;;7.07;;
60306;SDS011;46155;52.364;6.580;2023-07-02T15:56:05;10.03;;;7.07;;
60306;SDS011;46155;52.364;6.580;2023-07-02T15:58:31;16.70;;;7.90;;
60306;SDS011;46155;52.364;6.580;2023-07-02T16:03:34;14.87;;;8.00;;
60306;SDS011;46155;52.364;6.580;2023-07-02T16:06:00;14.97;;;8.27;;
60306;SDS011;46155;52.364;6.580;2023-07-02T16:08:25;9.90;;;7.77;;
60306;SDS011;46155;52.364;6.580;2023-07-02T16:10:50;10.37;;;6.90;;
60306;SDS011;46155;52.364;6.580;2023-07-02T16:13:16;10.17;;;6.93;;
60306;SDS011;46155;52.364;6.580;2023-07-02T16:15:41;8.23;;;6.83;;
60306;SDS011;46155;52.364;6.580;2023-07-02T16:18:07;12.63;;;6.90;;
60306;SDS011;46155;52.364;6.580;2023-07-02T16:20:34;12.57;;;8.20;;
60306;SDS011;46155;52.364;6.580;2023-07-02T16:23:00;18.57;;;7.33;;
60306;SDS011;46155;52.364;6.580;2023-07-02T16:25:26;10.63;;;6.80;;
60306;SDS011;46155;52.364;6.580;2023-07-02T16:27:51;15.20;;;7.33;;
60306;SDS011;46155;52.364;6.580;2023-07-02T16:30:16;12.90;;;7.57;;
60306;SDS011;46155;52.364;6.580;2023-07-02T16:32:42;10.27;;;7.40;;
60306;SDS011;46155;52.364;6.580;2023-07-02T16:35:07;16.77;;;8.13;;
60306;SDS011;46155;52.364;6.580;2023-07-02T16:37:32;10.13;;;7.60;;
60306;SDS011;46155;52.364;6.580;2023-07-02T16:39:58;10.00;;;6.73;;
60306;SDS011;46155;52.364;6.580;2023-07-02T16:42:23;8.90;;;7.57;;
60306;SDS011;46155;52.364;6.580;2023-07-02T16:44:49;14.10;;;7.47;;
60306;SDS011;46155;52.364;6.580;2023-07-02T16:47:14;12.20;;;7.20;;
60306;SDS011;46155;52.364;6.580;2023-07-02T16:49:40;9.30;;;6.80;;
60306;SDS011;46155;52.364;6.580;2023-07-02T16:52:05;12.33;;;7.53;;
60306;SDS011;46155;52.364;6.580;2023-07-02T16:54:31;10.77;;;6.77;;
60306;SDS011;46155;52.364;6.580;2023-07-02T16:56:57;10.93;;;6.67;;
60306;SDS011;46155;52.364;6.580;2023-07-02T16:59:24;9.33;;;7.07;;
60306;SDS011;46155;52.364;6.580;2023-07-02T17:01:55;10.80;;;6.90;;
60306;SDS011;46155;52.364;6.580;2023-07-02T17:04:22;11.83;;;6.90;;
60306;SDS011;46155;52.364;6.580;2023-07-02T17:06:50;9.50;;;6.73;;
60306;SDS011;46155;52.364;6.580;2023-07-02T17:09:18;8.90;;;6.80;;
60306;SDS011;46155;52.364;6.580;2023-07-02T17:11:50;8.53;;;7.30;;
60306;SDS011;46155;52.364;6.580;2023-07-02T17:14:20;10.43;;;6.80;;
60306;SDS011;46155;52.364;6.580;2023-07-02T17:16:47;8.70;;;6.90;;
60306;SDS011;46155;52.364;6.580;2023-07-02T17:19:16;7.40;;;6.60;;
60306;SDS011;46155;52.364;6.580;2023-07-02T17:21:45;14.37;;;6.93;;
60306;SDS011;46155;52.364;6.580;2023-07-02T17:24:15;8.00;;;6.00;;
60306;SDS011;46155;52.364;6.580;2023-07-02T17:26:41;7.70;;;6.90;;
60306;SDS011;46155;52.364;6.580;2023-07-02T17:29:08;13.47;;;6.67;;
60306;SDS011;46155;52.364;6.580;2023-07-02T17:31:33;9.67;;;6.33;;
60306;SDS011;46155;52.364;6.580;2023-07-02T17:33:58;10.40;;;6.43;;
60306;SDS011;46155;52.364;6.580;2023-07-02T17:36:24;10.20;;;6.70;;